Lake Dawn — 3EXJ9 — position and weather

sailwx.info

Track history (hours):
 
Tides and Currents Weather Stations Pressure Air Temp Water Temp Dewpoint Dewpoint Depression Visibility Wind Speed Wind Dir Waves Ship Positions

Lake Dawn

Last reported at 2017-Nov-18 03:58 UTC. Time now 2017-Nov-18 14:24 UTC.
Position N 33°44' W 118°11'.

Length 229 m; draft 7.3 m.

Type: Cargo ship. MMSI: 355196000.

Date/timePositionNaut miles runAvg speedWind from/ knotsBaromVisibWave heightAir tempDewpointWater temp
2017-Nov-18 03:58N 33°44' W 118°11'511.6
2017-Nov-18 03:30N 33°38' W 118°10'17 8.0
2017-Nov-18 01:24N 33°40' W 118°30'4 8.8
2017-Nov-18 00:57N 33°42' W 118°35'4 8.9
2017-Nov-18 00:30N 33°44' W 118°39'4 9.0
2017-Nov-18 00:00N 33°46' W 118°43'4 8.9
2017-Nov-17 23:30N 33°49' W 118°48'4 7.8
2017-Nov-17 23:00N 33°51' W 118°52'4 7.1
2017-Nov-17 22:30N 33°52' W 118°56'4 7.1
2017-Nov-17 22:00N 33°54' W 118°59'3 6.8
2017-Nov-17 21:30N 33°56' W 119°03'4 7.1
2017-Nov-17 21:00N 33°58' W 119°07'5 9.2
2017-Nov-17 20:30N 33°60' W 119°11'6 9.9
2017-Nov-17 19:55N 34°02' W 119°18'3 6.8
2017-Nov-17 19:24N 34°03' W 119°22'3 7.1
2017-Nov-17 19:00N 34°04' W 119°25'3 5.7
2017-Nov-17 18:25N 34°05' W 119°29'2 4.4
2017-Nov-17 18:00N 34°05' W 119°31'4 7.0
2017-Nov-17 17:28N 34°06' W 119°35'3 7.0
2017-Nov-17 17:00N 34°07' W 119°39'3 5.1
2017-Nov-17 16:30N 34°08' W 119°42'510.7
2017-Nov-17 16:00N 34°09' W 119°48'5 9.9
2017-Nov-17 15:26N 34°11' W 119°55'3 7.2
2017-Nov-17 15:00N 34°11' W 119°59'510.9
2017-Nov-17 14:30N 34°13' W 120°05'6 9.2
2017-Nov-17 13:53N 34°14' W 120°12'3 7.0
2017-Nov-17 13:27N 34°15' W 120°15'511.2
2017-Nov-17 13:00N 34°17' W 120°21'5 9.4
2017-Nov-17 12:29N 34°18' W 120°27'3 6.7
2017-Nov-17 11:58N 34°19' W 120°31'510.1
2017-Nov-17 11:30N 34°20' W 120°36'612.4
2017-Nov-17 11:00N 34°22' W 120°43'4 7.5
2017-Nov-17 10:30N 34°23' W 120°48'4 8.1
2017-Nov-17 10:00N 34°24' W 120°52'611.2
2017-Nov-17 09:30N 34°25' W 120°59'3 6.7
2017-Nov-17 09:00N 34°26' W 121°03'4 8.7
2017-Nov-17 08:30N 34°27' W 121°08'713.6
2017-Nov-17 08:00N 34°28' W 121°16'714.2
2017-Nov-17 07:31N 34°30' W 121°24'714.4
2017-Nov-17 07:01N 34°31' W 121°33'714.4
2017-Nov-17 06:31N 34°33' W 121°42'714.6
2017-Nov-17 06:01N 34°34' W 121°50'714.4
2017-Nov-17 05:31N 34°36' W 121°59'  
Track history (hours):
 
Tides and Currents Weather Stations Pressure Air Temp Water Temp Dewpoint Dewpoint Depression Visibility Wind Speed Wind Dir Waves Ship Positions

Lake Dawn

Last reported at 2017-Nov-18 03:58 UTC. Time now 2017-Nov-18 14:24 UTC.
Position N 33°44' W 118°11'.

Length 229 m; draft 7.3 m.

Type: Cargo ship. MMSI: 355196000.

Date/timePositionNaut miles runAvg speedWind from/ knotsBaromVisibWave heightAir tempDewpointWater temp
2017-Nov-18 03:58N 33°44' W 118°11'511.6
2017-Nov-18 03:30N 33°38' W 118°10'17 8.0
2017-Nov-18 01:24N 33°40' W 118°30'4 8.8
2017-Nov-18 00:57N 33°42' W 118°35'4 8.9
2017-Nov-18 00:30N 33°44' W 118°39'4 9.0
2017-Nov-18 00:00N 33°46' W 118°43'4 8.9
2017-Nov-17 23:30N 33°49' W 118°48'4 7.8
2017-Nov-17 23:00N 33°51' W 118°52'4 7.1
2017-Nov-17 22:30N 33°52' W 118°56'4 7.1
2017-Nov-17 22:00N 33°54' W 118°59'3 6.8
2017-Nov-17 21:30N 33°56' W 119°03'4 7.1
2017-Nov-17 21:00N 33°58' W 119°07'5 9.2
2017-Nov-17 20:30N 33°60' W 119°11'6 9.9
2017-Nov-17 19:55N 34°02' W 119°18'3 6.8
2017-Nov-17 19:24N 34°03' W 119°22'3 7.1
2017-Nov-17 19:00N 34°04' W 119°25'3 5.7
2017-Nov-17 18:25N 34°05' W 119°29'2 4.4
2017-Nov-17 18:00N 34°05' W 119°31'4 7.0
2017-Nov-17 17:28N 34°06' W 119°35'3 7.0
2017-Nov-17 17:00N 34°07' W 119°39'3 5.1
2017-Nov-17 16:30N 34°08' W 119°42'510.7
2017-Nov-17 16:00N 34°09' W 119°48'5 9.9
2017-Nov-17 15:26N 34°11' W 119°55'3 7.2
2017-Nov-17 15:00N 34°11' W 119°59'510.9
2017-Nov-17 14:30N 34°13' W 120°05'6 9.2
2017-Nov-17 13:53N 34°14' W 120°12'3 7.0
2017-Nov-17 13:27N 34°15' W 120°15'511.2
2017-Nov-17 13:00N 34°17' W 120°21'5 9.4
2017-Nov-17 12:29N 34°18' W 120°27'3 6.7
2017-Nov-17 11:58N 34°19' W 120°31'510.1
2017-Nov-17 11:30N 34°20' W 120°36'612.4
2017-Nov-17 11:00N 34°22' W 120°43'4 7.5
2017-Nov-17 10:30N 34°23' W 120°48'4 8.1
2017-Nov-17 10:00N 34°24' W 120°52'611.2
2017-Nov-17 09:30N 34°25' W 120°59'3 6.7
2017-Nov-17 09:00N 34°26' W 121°03'4 8.7
2017-Nov-17 08:30N 34°27' W 121°08'713.6
2017-Nov-17 08:00N 34°28' W 121°16'714.2
2017-Nov-17 07:31N 34°30' W 121°24'714.4
2017-Nov-17 07:01N 34°31' W 121°33'714.4
2017-Nov-17 06:31N 34°33' W 121°42'714.6
2017-Nov-17 06:01N 34°34' W 121°50'714.4
2017-Nov-17 05:31N 34°36' W 121°59'  

Dump ship's entire track history